sensor_id;sensor_type;location;lat;lon;timestamp;P1;durP1;ratioP1;P2;durP2;ratioP2
4049;SDS011;2039;50.894;6.888;2023-07-31T00:01:06;87.83;;;50.20;;
4049;SDS011;2039;50.894;6.888;2023-07-31T00:03:32;86.93;;;43.03;;
4049;SDS011;2039;50.894;6.888;2023-07-31T00:05:57;91.70;;;51.83;;
4049;SDS011;2039;50.894;6.888;2023-07-31T00:08:23;89.20;;;44.30;;
4049;SDS011;2039;50.894;6.888;2023-07-31T00:10:51;88.10;;;38.07;;
4049;SDS011;2039;50.894;6.888;2023-07-31T00:13:17;91.57;;;41.53;;
4049;SDS011;2039;50.894;6.888;2023-07-31T00:15:43;88.47;;;38.67;;
4049;SDS011;2039;50.894;6.888;2023-07-31T00:18:09;86.73;;;38.27;;
4049;SDS011;2039;50.894;6.888;2023-07-31T00:20:34;88.83;;;41.57;;
4049;SDS011;2039;50.894;6.888;2023-07-31T00:23:00;86.60;;;41.67;;
4049;SDS011;2039;50.894;6.888;2023-07-31T00:25:25;84.37;;;39.67;;
4049;SDS011;2039;50.894;6.888;2023-07-31T00:27:51;88.30;;;38.07;;
4049;SDS011;2039;50.894;6.888;2023-07-31T00:30:17;88.50;;;41.90;;
4049;SDS011;2039;50.894;6.888;2023-07-31T00:32:43;90.50;;;35.93;;
4049;SDS011;2039;50.894;6.888;2023-07-31T00:35:08;84.20;;;33.23;;
4049;SDS011;2039;50.894;6.888;2023-07-31T00:37:34;79.43;;;29.53;;
4049;SDS011;2039;50.894;6.888;2023-07-31T00:39:59;87.77;;;39.47;;
4049;SDS011;2039;50.894;6.888;2023-07-31T00:42:25;83.03;;;37.80;;
4049;SDS011;2039;50.894;6.888;2023-07-31T00:44:51;83.80;;;36.00;;
4049;SDS011;2039;50.894;6.888;2023-07-31T00:47:17;87.70;;;36.20;;
4049;SDS011;2039;50.894;6.888;2023-07-31T00:49:42;88.43;;;35.37;;
4049;SDS011;2039;50.894;6.888;2023-07-31T00:52:09;81.50;;;35.60;;
4049;SDS011;2039;50.894;6.888;2023-07-31T00:54:35;84.93;;;41.30;;
4049;SDS011;2039;50.894;6.888;2023-07-31T00:57:01;89.93;;;42.13;;
4049;SDS011;2039;50.894;6.888;2023-07-31T00:59:27;84.30;;;33.80;;
4049;SDS011;2039;50.894;6.888;2023-07-31T01:01:53;87.30;;;36.13;;
4049;SDS011;2039;50.894;6.888;2023-07-31T01:04:19;85.60;;;40.50;;
4049;SDS011;2039;50.894;6.888;2023-07-31T01:11:57;84.97;;;37.83;;
4049;SDS011;2039;50.894;6.888;2023-07-31T01:14:26;83.10;;;38.80;;
4049;SDS011;2039;50.894;6.888;2023-07-31T01:16:52;90.33;;;40.03;;
4049;SDS011;2039;50.894;6.888;2023-07-31T01:19:18;84.50;;;35.40;;
4049;SDS011;2039;50.894;6.888;2023-07-31T01:24:42;89.23;;;39.30;;
4049;SDS011;2039;50.894;6.888;2023-07-31T01:27:21;84.60;;;34.93;;
4049;SDS011;2039;50.894;6.888;2023-07-31T01:29:56;84.10;;;38.97;;
4049;SDS011;2039;50.894;6.888;2023-07-31T01:32:39;86.77;;;43.17;;
4049;SDS011;2039;50.894;6.888;2023-07-31T01:35:06;88.00;;;43.90;;
4049;SDS011;2039;50.894;6.888;2023-07-31T01:37:33;86.73;;;36.07;;
4049;SDS011;2039;50.894;6.888;2023-07-31T01:39:59;88.60;;;45.43;;
4049;SDS011;2039;50.894;6.888;2023-07-31T01:42:24;86.40;;;36.37;;
4049;SDS011;2039;50.894;6.888;2023-07-31T01:44:50;84.83;;;36.97;;
4049;SDS011;2039;50.894;6.888;2023-07-31T01:47:16;95.93;;;56.97;;
4049;SDS011;2039;50.894;6.888;2023-07-31T01:49:41;82.53;;;36.00;;
4049;SDS011;2039;50.894;6.888;2023-07-31T01:52:07;85.10;;;39.73;;
4049;SDS011;2039;50.894;6.888;2023-07-31T01:54:36;91.60;;;38.63;;
4049;SDS011;2039;50.894;6.888;2023-07-31T01:57:02;88.43;;;32.47;;
4049;SDS011;2039;50.894;6.888;2023-07-31T01:59:28;83.13;;;36.73;;
4049;SDS011;2039;50.894;6.888;2023-07-31T02:01:54;82.97;;;35.53;;
4049;SDS011;2039;50.894;6.888;2023-07-31T02:04:19;85.40;;;37.07;;
4049;SDS011;2039;50.894;6.888;2023-07-31T02:06:45;87.60;;;36.97;;
4049;SDS011;2039;50.894;6.888;2023-07-31T02:09:10;84.83;;;39.87;;
4049;SDS011;2039;50.894;6.888;2023-07-31T02:11:36;83.40;;;35.13;;
4049;SDS011;2039;50.894;6.888;2023-07-31T02:14:02;86.53;;;38.93;;
4049;SDS011;2039;50.894;6.888;2023-07-31T02:16:27;86.30;;;42.33;;
4049;SDS011;2039;50.894;6.888;2023-07-31T02:18:53;85.30;;;35.07;;
4049;SDS011;2039;50.894;6.888;2023-07-31T02:21:19;85.63;;;39.33;;
4049;SDS011;2039;50.894;6.888;2023-07-31T02:23:44;83.63;;;33.23;;
4049;SDS011;2039;50.894;6.888;2023-07-31T02:26:10;85.10;;;38.20;;
4049;SDS011;2039;50.894;6.888;2023-07-31T02:28:35;86.33;;;37.63;;
4049;SDS011;2039;50.894;6.888;2023-07-31T02:31:05;86.17;;;34.03;;
4049;SDS011;2039;50.894;6.888;2023-07-31T02:33:36;86.70;;;35.53;;
4049;SDS011;2039;50.894;6.888;2023-07-31T02:36:02;85.20;;;32.40;;
4049;SDS011;2039;50.894;6.888;2023-07-31T02:38:28;84.17;;;35.57;;
4049;SDS011;2039;50.894;6.888;2023-07-31T02:40:56;83.17;;;30.47;;
4049;SDS011;2039;50.894;6.888;2023-07-31T02:43:22;92.40;;;49.67;;
4049;SDS011;2039;50.894;6.888;2023-07-31T02:45:51;85.30;;;36.10;;
4049;SDS011;2039;50.894;6.888;2023-07-31T02:48:17;87.27;;;30.20;;
4049;SDS011;2039;50.894;6.888;2023-07-31T02:50:43;83.37;;;33.17;;
4049;SDS011;2039;50.894;6.888;2023-07-31T02:53:10;82.83;;;35.00;;
4049;SDS011;2039;50.894;6.888;2023-07-31T02:55:35;85.17;;;36.53;;
4049;SDS011;2039;50.894;6.888;2023-07-31T02:58:01;88.30;;;41.73;;
4049;SDS011;2039;50.894;6.888;2023-07-31T03:00:27;83.30;;;30.87;;
4049;SDS011;2039;50.894;6.888;2023-07-31T03:02:53;84.10;;;35.30;;
4049;SDS011;2039;50.894;6.888;2023-07-31T03:05:18;84.70;;;33.80;;
4049;SDS011;2039;50.894;6.888;2023-07-31T03:07:44;85.60;;;35.73;;
4049;SDS011;2039;50.894;6.888;2023-07-31T03:10:09;88.67;;;34.20;;
4049;SDS011;2039;50.894;6.888;2023-07-31T03:12:35;86.47;;;32.50;;
4049;SDS011;2039;50.894;6.888;2023-07-31T03:15:01;87.17;;;35.47;;
4049;SDS011;2039;50.894;6.888;2023-07-31T03:17:27;88.50;;;40.17;;
4049;SDS011;2039;50.894;6.888;2023-07-31T03:19:55;86.73;;;38.40;;
4049;SDS011;2039;50.894;6.888;2023-07-31T03:22:21;83.83;;;35.63;;
4049;SDS011;2039;50.894;6.888;2023-07-31T03:24:46;87.57;;;35.23;;
4049;SDS011;2039;50.894;6.888;2023-07-31T03:27:12;88.43;;;34.43;;
4049;SDS011;2039;50.894;6.888;2023-07-31T03:29:38;86.97;;;36.53;;
4049;SDS011;2039;50.894;6.888;2023-07-31T03:32:03;92.00;;;38.30;;
4049;SDS011;2039;50.894;6.888;2023-07-31T03:34:30;87.50;;;34.73;;
4049;SDS011;2039;50.894;6.888;2023-07-31T03:37:00;87.97;;;39.23;;
4049;SDS011;2039;50.894;6.888;2023-07-31T03:39:25;85.23;;;35.87;;
4049;SDS011;2039;50.894;6.888;2023-07-31T03:41:51;84.00;;;40.83;;
4049;SDS011;2039;50.894;6.888;2023-07-31T03:44:17;87.87;;;41.93;;
4049;SDS011;2039;50.894;6.888;2023-07-31T03:46:42;90.80;;;40.87;;
4049;SDS011;2039;50.894;6.888;2023-07-31T03:49:08;86.70;;;34.07;;
4049;SDS011;2039;50.894;6.888;2023-07-31T03:51:33;88.40;;;38.07;;
4049;SDS011;2039;50.894;6.888;2023-07-31T03:54:02;83.80;;;37.43;;
4049;SDS011;2039;50.894;6.888;2023-07-31T03:56:30;88.63;;;41.73;;
4049;SDS011;2039;50.894;6.888;2023-07-31T03:58:56;84.57;;;36.10;;
4049;SDS011;2039;50.894;6.888;2023-07-31T04:01:21;85.77;;;33.23;;
4049;SDS011;2039;50.894;6.888;2023-07-31T04:03:47;83.27;;;34.47;;
4049;SDS011;2039;50.894;6.888;2023-07-31T04:06:13;82.70;;;34.90;;
4049;SDS011;2039;50.894;6.888;2023-07-31T04:08:38;84.00;;;34.90;;
4049;SDS011;2039;50.894;6.888;2023-07-31T04:11:04;83.17;;;36.23;;
4049;SDS011;2039;50.894;6.888;2023-07-31T04:13:30;83.20;;;34.33;;
4049;SDS011;2039;50.894;6.888;2023-07-31T04:15:55;82.90;;;35.67;;
4049;SDS011;2039;50.894;6.888;2023-07-31T04:18:21;86.20;;;38.23;;
4049;SDS011;2039;50.894;6.888;2023-07-31T04:20:47;84.30;;;36.67;;
4049;SDS011;2039;50.894;6.888;2023-07-31T04:23:12;93.83;;;36.87;;
4049;SDS011;2039;50.894;6.888;2023-07-31T04:25:38;83.57;;;32.43;;
4049;SDS011;2039;50.894;6.888;2023-07-31T04:28:04;83.63;;;34.10;;
4049;SDS011;2039;50.894;6.888;2023-07-31T04:30:29;86.40;;;34.70;;
4049;SDS011;2039;50.894;6.888;2023-07-31T04:32:55;84.83;;;36.30;;
4049;SDS011;2039;50.894;6.888;2023-07-31T04:35:21;87.43;;;37.40;;
4049;SDS011;2039;50.894;6.888;2023-07-31T04:37:46;84.37;;;38.13;;
4049;SDS011;2039;50.894;6.888;2023-07-31T04:40:14;83.93;;;34.67;;
4049;SDS011;2039;50.894;6.888;2023-07-31T04:42:40;85.23;;;35.50;;
4049;SDS011;2039;50.894;6.888;2023-07-31T04:45:06;91.90;;;37.93;;
4049;SDS011;2039;50.894;6.888;2023-07-31T04:47:32;87.67;;;39.63;;
4049;SDS011;2039;50.894;6.888;2023-07-31T04:49:58;88.20;;;41.07;;
4049;SDS011;2039;50.894;6.888;2023-07-31T04:52:23;85.77;;;37.33;;
4049;SDS011;2039;50.894;6.888;2023-07-31T04:54:49;93.07;;;41.47;;
4049;SDS011;2039;50.894;6.888;2023-07-31T04:57:15;88.03;;;39.03;;
4049;SDS011;2039;50.894;6.888;2023-07-31T04:59:40;87.53;;;41.30;;
4049;SDS011;2039;50.894;6.888;2023-07-31T05:02:07;89.77;;;43.80;;
4049;SDS011;2039;50.894;6.888;2023-07-31T05:04:33;84.97;;;39.23;;
4049;SDS011;2039;50.894;6.888;2023-07-31T05:06:59;83.50;;;36.03;;
4049;SDS011;2039;50.894;6.888;2023-07-31T05:09:25;82.73;;;35.50;;
4049;SDS011;2039;50.894;6.888;2023-07-31T05:11:50;84.27;;;35.33;;
4049;SDS011;2039;50.894;6.888;2023-07-31T05:14:16;83.10;;;36.23;;
4049;SDS011;2039;50.894;6.888;2023-07-31T05:16:41;83.73;;;28.73;;
4049;SDS011;2039;50.894;6.888;2023-07-31T05:19:07;90.73;;;30.63;;
4049;SDS011;2039;50.894;6.888;2023-07-31T05:21:33;83.03;;;28.27;;
4049;SDS011;2039;50.894;6.888;2023-07-31T05:23:58;81.37;;;26.67;;
4049;SDS011;2039;50.894;6.888;2023-07-31T05:26:24;81.97;;;26.17;;
4049;SDS011;2039;50.894;6.888;2023-07-31T05:28:50;79.63;;;21.23;;
4049;SDS011;2039;50.894;6.888;2023-07-31T05:31:15;77.57;;;18.87;;
4049;SDS011;2039;50.894;6.888;2023-07-31T05:33:41;78.80;;;20.63;;
4049;SDS011;2039;50.894;6.888;2023-07-31T05:36:07;77.27;;;18.50;;
4049;SDS011;2039;50.894;6.888;2023-07-31T05:38:32;78.07;;;19.07;;
4049;SDS011;2039;50.894;6.888;2023-07-31T05:40:58;78.10;;;16.67;;
4049;SDS011;2039;50.894;6.888;2023-07-31T05:43:23;78.67;;;17.83;;
4049;SDS011;2039;50.894;6.888;2023-07-31T05:49:32;79.10;;;20.30;;
4049;SDS011;2039;50.894;6.888;2023-07-31T05:52:28;79.53;;;22.10;;
4049;SDS011;2039;50.894;6.888;2023-07-31T06:02:16;78.03;;;21.23;;
4049;SDS011;2039;50.894;6.888;2023-07-31T06:04:51;77.00;;;19.00;;
4049;SDS011;2039;50.894;6.888;2023-07-31T06:07:19;79.27;;;22.53;;
4049;SDS011;2039;50.894;6.888;2023-07-31T06:09:48;80.50;;;26.90;;
4049;SDS011;2039;50.894;6.888;2023-07-31T06:15:42;81.67;;;35.77;;
4049;SDS011;2039;50.894;6.888;2023-07-31T06:18:08;84.60;;;40.40;;
4049;SDS011;2039;50.894;6.888;2023-07-31T06:20:34;84.77;;;38.60;;
4049;SDS011;2039;50.894;6.888;2023-07-31T06:23:00;86.53;;;39.57;;
4049;SDS011;2039;50.894;6.888;2023-07-31T06:25:25;85.53;;;36.80;;
4049;SDS011;2039;50.894;6.888;2023-07-31T06:27:51;85.13;;;34.63;;
4049;SDS011;2039;50.894;6.888;2023-07-31T06:30:17;88.17;;;41.13;;
4049;SDS011;2039;50.894;6.888;2023-07-31T06:32:42;84.10;;;35.73;;
4049;SDS011;2039;50.894;6.888;2023-07-31T06:35:08;82.33;;;29.70;;
4049;SDS011;2039;50.894;6.888;2023-07-31T06:37:34;83.70;;;32.93;;
4049;SDS011;2039;50.894;6.888;2023-07-31T06:39:59;85.33;;;34.77;;
4049;SDS011;2039;50.894;6.888;2023-07-31T06:42:25;88.60;;;37.73;;
4049;SDS011;2039;50.894;6.888;2023-07-31T06:44:51;83.00;;;32.30;;
4049;SDS011;2039;50.894;6.888;2023-07-31T06:47:16;85.10;;;36.63;;
4049;SDS011;2039;50.894;6.888;2023-07-31T06:49:42;87.20;;;32.33;;
4049;SDS011;2039;50.894;6.888;2023-07-31T06:52:08;84.00;;;32.83;;
4049;SDS011;2039;50.894;6.888;2023-07-31T06:54:34;84.20;;;30.00;;
4049;SDS011;2039;50.894;6.888;2023-07-31T06:57:00;80.30;;;28.33;;
4049;SDS011;2039;50.894;6.888;2023-07-31T06:59:25;83.53;;;27.30;;
4049;SDS011;2039;50.894;6.888;2023-07-31T07:01:51;85.47;;;34.53;;
4049;SDS011;2039;50.894;6.888;2023-07-31T07:04:17;84.13;;;33.60;;
4049;SDS011;2039;50.894;6.888;2023-07-31T07:06:42;85.27;;;34.60;;
4049;SDS011;2039;50.894;6.888;2023-07-31T07:09:08;88.53;;;40.77;;
4049;SDS011;2039;50.894;6.888;2023-07-31T07:11:34;83.43;;;37.93;;
4049;SDS011;2039;50.894;6.888;2023-07-31T07:13:59;89.63;;;37.53;;
4049;SDS011;2039;50.894;6.888;2023-07-31T07:16:25;84.70;;;40.13;;
4049;SDS011;2039;50.894;6.888;2023-07-31T07:18:53;87.93;;;42.20;;
4049;SDS011;2039;50.894;6.888;2023-07-31T07:21:19;83.57;;;36.83;;
4049;SDS011;2039;50.894;6.888;2023-07-31T07:23:45;85.97;;;38.10;;
4049;SDS011;2039;50.894;6.888;2023-07-31T07:26:10;82.20;;;37.60;;
4049;SDS011;2039;50.894;6.888;2023-07-31T07:28:36;86.07;;;37.30;;
4049;SDS011;2039;50.894;6.888;2023-07-31T07:31:02;87.73;;;37.83;;
4049;SDS011;2039;50.894;6.888;2023-07-31T07:33:28;82.70;;;31.80;;
4049;SDS011;2039;50.894;6.888;2023-07-31T07:35:54;81.07;;;24.87;;
4049;SDS011;2039;50.894;6.888;2023-07-31T07:38:19;82.93;;;37.27;;
4049;SDS011;2039;50.894;6.888;2023-07-31T07:40:45;86.10;;;39.33;;
4049;SDS011;2039;50.894;6.888;2023-07-31T07:43:15;88.23;;;42.87;;
4049;SDS011;2039;50.894;6.888;2023-07-31T07:45:41;86.07;;;41.53;;
4049;SDS011;2039;50.894;6.888;2023-07-31T07:48:06;87.60;;;41.53;;
4049;SDS011;2039;50.894;6.888;2023-07-31T07:50:32;86.80;;;43.10;;
4049;SDS011;2039;50.894;6.888;2023-07-31T07:52:58;88.50;;;44.83;;
4049;SDS011;2039;50.894;6.888;2023-07-31T07:55:23;84.63;;;41.83;;
4049;SDS011;2039;50.894;6.888;2023-07-31T07:57:49;91.20;;;44.17;;
4049;SDS011;2039;50.894;6.888;2023-07-31T08:00:15;87.00;;;37.90;;
4049;SDS011;2039;50.894;6.888;2023-07-31T08:02:42;84.53;;;35.67;;
4049;SDS011;2039;50.894;6.888;2023-07-31T08:05:08;85.00;;;37.27;;
4049;SDS011;2039;50.894;6.888;2023-07-31T08:07:34;86.03;;;42.37;;
4049;SDS011;2039;50.894;6.888;2023-07-31T08:09:59;82.33;;;37.83;;
4049;SDS011;2039;50.894;6.888;2023-07-31T08:12:25;86.60;;;41.63;;
4049;SDS011;2039;50.894;6.888;2023-07-31T08:14:51;83.77;;;35.10;;
4049;SDS011;2039;50.894;6.888;2023-07-31T08:17:17;89.00;;;41.23;;
4049;SDS011;2039;50.894;6.888;2023-07-31T08:19:42;84.70;;;35.03;;
4049;SDS011;2039;50.894;6.888;2023-07-31T08:22:09;84.83;;;38.93;;
4049;SDS011;2039;50.894;6.888;2023-07-31T08:24:35;90.57;;;36.30;;
4049;SDS011;2039;50.894;6.888;2023-07-31T08:27:00;83.33;;;37.97;;
4049;SDS011;2039;50.894;6.888;2023-07-31T08:29:26;85.33;;;37.77;;
4049;SDS011;2039;50.894;6.888;2023-07-31T08:31:51;82.93;;;36.43;;
4049;SDS011;2039;50.894;6.888;2023-07-31T08:34:17;85.43;;;39.30;;
4049;SDS011;2039;50.894;6.888;2023-07-31T08:36:43;82.33;;;33.53;;
4049;SDS011;2039;50.894;6.888;2023-07-31T08:39:08;84.50;;;35.00;;
4049;SDS011;2039;50.894;6.888;2023-07-31T08:41:40;82.60;;;34.77;;
4049;SDS011;2039;50.894;6.888;2023-07-31T08:44:06;83.47;;;36.87;;
4049;SDS011;2039;50.894;6.888;2023-07-31T08:46:33;83.63;;;38.47;;
4049;SDS011;2039;50.894;6.888;2023-07-31T08:48:59;81.87;;;34.43;;
4049;SDS011;2039;50.894;6.888;2023-07-31T08:51:27;82.93;;;37.30;;
4049;SDS011;2039;50.894;6.888;2023-07-31T08:53:54;84.07;;;32.93;;
4049;SDS011;2039;50.894;6.888;2023-07-31T08:56:20;81.00;;;32.07;;
4049;SDS011;2039;50.894;6.888;2023-07-31T08:58:46;91.63;;;32.43;;
4049;SDS011;2039;50.894;6.888;2023-07-31T09:01:14;83.83;;;37.10;;
4049;SDS011;2039;50.894;6.888;2023-07-31T09:03:41;80.33;;;30.10;;
4049;SDS011;2039;50.894;6.888;2023-07-31T09:06:08;82.53;;;31.60;;
4049;SDS011;2039;50.894;6.888;2023-07-31T09:08:35;83.67;;;34.27;;
4049;SDS011;2039;50.894;6.888;2023-07-31T09:11:05;81.77;;;36.33;;
4049;SDS011;2039;50.894;6.888;2023-07-31T09:13:32;80.87;;;33.23;;
4049;SDS011;2039;50.894;6.888;2023-07-31T09:15:58;80.43;;;31.33;;
4049;SDS011;2039;50.894;6.888;2023-07-31T09:18:24;85.50;;;32.23;;
4049;SDS011;2039;50.894;6.888;2023-07-31T09:23:39;81.83;;;34.67;;
4049;SDS011;2039;50.894;6.888;2023-07-31T09:26:08;84.03;;;30.93;;
4049;SDS011;2039;50.894;6.888;2023-07-31T09:28:34;81.10;;;32.57;;
4049;SDS011;2039;50.894;6.888;2023-07-31T09:31:00;85.77;;;34.10;;
4049;SDS011;2039;50.894;6.888;2023-07-31T09:33:26;83.83;;;36.30;;
4049;SDS011;2039;50.894;6.888;2023-07-31T09:35:51;84.30;;;34.53;;
4049;SDS011;2039;50.894;6.888;2023-07-31T09:38:17;82.43;;;33.70;;
4049;SDS011;2039;50.894;6.888;2023-07-31T09:40:44;85.00;;;35.47;;
4049;SDS011;2039;50.894;6.888;2023-07-31T09:43:13;84.30;;;37.13;;
4049;SDS011;2039;50.894;6.888;2023-07-31T09:45:43;81.77;;;30.47;;
4049;SDS011;2039;50.894;6.888;2023-07-31T09:48:10;84.10;;;29.53;;
4049;SDS011;2039;50.894;6.888;2023-07-31T09:50:41;83.30;;;35.23;;
4049;SDS011;2039;50.894;6.888;2023-07-31T09:53:08;84.63;;;39.17;;
4049;SDS011;2039;50.894;6.888;2023-07-31T09:55:34;90.37;;;46.13;;
4049;SDS011;2039;50.894;6.888;2023-07-31T09:58:05;87.60;;;36.83;;
4049;SDS011;2039;50.894;6.888;2023-07-31T10:00:35;89.33;;;38.67;;
4049;SDS011;2039;50.894;6.888;2023-07-31T10:03:08;88.63;;;48.10;;
4049;SDS011;2039;50.894;6.888;2023-07-31T10:05:36;83.47;;;36.77;;
4049;SDS011;2039;50.894;6.888;2023-07-31T10:08:10;82.23;;;28.27;;
4049;SDS011;2039;50.894;6.888;2023-07-31T10:11:05;77.00;;;20.03;;
4049;SDS011;2039;50.894;6.888;2023-07-31T10:13:34;75.10;;;10.60;;
4049;SDS011;2039;50.894;6.888;2023-07-31T10:16:03;75.63;;;14.63;;
4049;SDS011;2039;50.894;6.888;2023-07-31T10:18:29;73.47;;;13.60;;
4049;SDS011;2039;50.894;6.888;2023-07-31T10:20:55;72.87;;;10.30;;
4049;SDS011;2039;50.894;6.888;2023-07-31T10:23:22;76.47;;;19.73;;
4049;SDS011;2039;50.894;6.888;2023-07-31T10:25:50;79.10;;;18.70;;
4049;SDS011;2039;50.894;6.888;2023-07-31T10:28:18;84.93;;;39.87;;
4049;SDS011;2039;50.894;6.888;2023-07-31T10:30:44;81.47;;;31.73;;
4049;SDS011;2039;50.894;6.888;2023-07-31T10:33:10;80.53;;;31.47;;
4049;SDS011;2039;50.894;6.888;2023-07-31T10:35:36;83.13;;;33.93;;
4049;SDS011;2039;50.894;6.888;2023-07-31T10:38:11;83.63;;;37.43;;
4049;SDS011;2039;50.894;6.888;2023-07-31T10:40:37;83.03;;;32.23;;
4049;SDS011;2039;50.894;6.888;2023-07-31T10:43:05;76.83;;;9.67;;
4049;SDS011;2039;50.894;6.888;2023-07-31T10:45:36;74.17;;;10.03;;
4049;SDS011;2039;50.894;6.888;2023-07-31T10:48:06;73.27;;;10.03;;
4049;SDS011;2039;50.894;6.888;2023-07-31T10:50:46;73.40;;;7.80;;
4049;SDS011;2039;50.894;6.888;2023-07-31T10:53:26;72.63;;;11.73;;
4049;SDS011;2039;50.894;6.888;2023-07-31T10:55:59;71.27;;;9.53;;
4049;SDS011;2039;50.894;6.888;2023-07-31T10:58:26;73.60;;;12.13;;
4049;SDS011;2039;50.894;6.888;2023-07-31T11:00:55;72.37;;;9.27;;
4049;SDS011;2039;50.894;6.888;2023-07-31T11:03:25;71.17;;;7.97;;
4049;SDS011;2039;50.894;6.888;2023-07-31T11:05:52;70.57;;;8.20;;
4049;SDS011;2039;50.894;6.888;2023-07-31T11:10:51;70.97;;;9.47;;
4049;SDS011;2039;50.894;6.888;2023-07-31T11:13:31;74.20;;;16.20;;
4049;SDS011;2039;50.894;6.888;2023-07-31T11:15:59;76.83;;;26.53;;
4049;SDS011;2039;50.894;6.888;2023-07-31T11:18:26;81.90;;;29.00;;
4049;SDS011;2039;50.894;6.888;2023-07-31T11:20:52;81.37;;;35.13;;
4049;SDS011;2039;50.894;6.888;2023-07-31T11:23:19;78.67;;;27.13;;
4049;SDS011;2039;50.894;6.888;2023-07-31T11:25:45;78.57;;;30.50;;
4049;SDS011;2039;50.894;6.888;2023-07-31T11:28:11;79.30;;;31.40;;
4049;SDS011;2039;50.894;6.888;2023-07-31T11:30:39;77.37;;;25.73;;
4049;SDS011;2039;50.894;6.888;2023-07-31T11:33:06;72.93;;;12.80;;
4049;SDS011;2039;50.894;6.888;2023-07-31T11:35:33;70.57;;;6.10;;
4049;SDS011;2039;50.894;6.888;2023-07-31T11:38:00;72.20;;;9.40;;
4049;SDS011;2039;50.894;6.888;2023-07-31T11:40:26;71.07;;;9.30;;
4049;SDS011;2039;50.894;6.888;2023-07-31T11:42:57;70.37;;;6.80;;
4049;SDS011;2039;50.894;6.888;2023-07-31T11:45:27;70.97;;;9.33;;
4049;SDS011;2039;50.894;6.888;2023-07-31T11:47:56;70.47;;;8.90;;
4049;SDS011;2039;50.894;6.888;2023-07-31T11:50:23;70.27;;;5.70;;
4049;SDS011;2039;50.894;6.888;2023-07-31T11:52:51;70.10;;;6.07;;
4049;SDS011;2039;50.894;6.888;2023-07-31T11:55:22;71.67;;;9.23;;
4049;SDS011;2039;50.894;6.888;2023-07-31T11:57:48;71.40;;;9.63;;
4049;SDS011;2039;50.894;6.888;2023-07-31T12:00:15;71.97;;;12.60;;
4049;SDS011;2039;50.894;6.888;2023-07-31T12:02:42;72.17;;;10.60;;
4049;SDS011;2039;50.894;6.888;2023-07-31T12:05:12;70.80;;;8.93;;
4049;SDS011;2039;50.894;6.888;2023-07-31T12:07:51;70.83;;;7.03;;
4049;SDS011;2039;50.894;6.888;2023-07-31T12:13:01;69.90;;;6.43;;
4049;SDS011;2039;50.894;6.888;2023-07-31T12:15:53;69.40;;;5.97;;
4049;SDS011;2039;50.894;6.888;2023-07-31T12:18:21;69.03;;;6.03;;
4049;SDS011;2039;50.894;6.888;2023-07-31T12:20:54;70.67;;;7.30;;
4049;SDS011;2039;50.894;6.888;2023-07-31T12:23:22;69.57;;;5.67;;
4049;SDS011;2039;50.894;6.888;2023-07-31T12:26:01;69.57;;;6.00;;
4049;SDS011;2039;50.894;6.888;2023-07-31T12:28:30;70.53;;;7.53;;
4049;SDS011;2039;50.894;6.888;2023-07-31T12:31:00;70.17;;;7.87;;
4049;SDS011;2039;50.894;6.888;2023-07-31T12:33:35;70.10;;;6.70;;
4049;SDS011;2039;50.894;6.888;2023-07-31T12:36:04;70.23;;;7.07;;
4049;SDS011;2039;50.894;6.888;2023-07-31T12:38:32;70.80;;;8.13;;
4049;SDS011;2039;50.894;6.888;2023-07-31T12:40:58;74.93;;;9.70;;
4049;SDS011;2039;50.894;6.888;2023-07-31T12:43:24;70.60;;;8.57;;
4049;SDS011;2039;50.894;6.888;2023-07-31T12:45:50;71.80;;;10.03;;
4049;SDS011;2039;50.894;6.888;2023-07-31T12:48:16;71.90;;;10.30;;
4049;SDS011;2039;50.894;6.888;2023-07-31T12:50:42;71.00;;;9.90;;
4049;SDS011;2039;50.894;6.888;2023-07-31T12:53:14;71.70;;;9.53;;
4049;SDS011;2039;50.894;6.888;2023-07-31T12:55:40;72.37;;;10.10;;
4049;SDS011;2039;50.894;6.888;2023-07-31T12:58:06;71.80;;;10.30;;
4049;SDS011;2039;50.894;6.888;2023-07-31T13:00:32;74.57;;;10.93;;
4049;SDS011;2039;50.894;6.888;2023-07-31T13:02:58;72.70;;;10.87;;
4049;SDS011;2039;50.894;6.888;2023-07-31T13:05:25;72.00;;;9.40;;
4049;SDS011;2039;50.894;6.888;2023-07-31T13:07:51;74.07;;;12.37;;
4049;SDS011;2039;50.894;6.888;2023-07-31T13:10:19;72.57;;;10.80;;
4049;SDS011;2039;50.894;6.888;2023-07-31T13:12:46;73.57;;;10.37;;
4049;SDS011;2039;50.894;6.888;2023-07-31T13:15:12;76.37;;;11.80;;
4049;SDS011;2039;50.894;6.888;2023-07-31T13:17:37;74.50;;;12.40;;
4049;SDS011;2039;50.894;6.888;2023-07-31T13:20:03;73.10;;;10.50;;
4049;SDS011;2039;50.894;6.888;2023-07-31T13:22:29;72.50;;;10.83;;
4049;SDS011;2039;50.894;6.888;2023-07-31T13:24:55;72.70;;;9.37;;
4049;SDS011;2039;50.894;6.888;2023-07-31T13:27:21;70.57;;;8.90;;
4049;SDS011;2039;50.894;6.888;2023-07-31T13:29:55;72.10;;;9.27;;
4049;SDS011;2039;50.894;6.888;2023-07-31T13:33:26;72.17;;;7.80;;
4049;SDS011;2039;50.894;6.888;2023-07-31T13:35:53;71.87;;;7.83;;
4049;SDS011;2039;50.894;6.888;2023-07-31T13:38:19;71.80;;;6.83;;
4049;SDS011;2039;50.894;6.888;2023-07-31T13:40:45;70.67;;;6.67;;
4049;SDS011;2039;50.894;6.888;2023-07-31T13:43:10;71.83;;;7.23;;
4049;SDS011;2039;50.894;6.888;2023-07-31T13:45:36;75.50;;;7.43;;
4049;SDS011;2039;50.894;6.888;2023-07-31T13:48:02;75.30;;;7.60;;
4049;SDS011;2039;50.894;6.888;2023-07-31T13:50:28;78.20;;;6.97;;
4049;SDS011;2039;50.894;6.888;2023-07-31T13:52:54;70.90;;;6.30;;
4049;SDS011;2039;50.894;6.888;2023-07-31T13:55:21;70.80;;;5.60;;
4049;SDS011;2039;50.894;6.888;2023-07-31T13:57:46;72.30;;;8.80;;
4049;SDS011;2039;50.894;6.888;2023-07-31T14:00:12;73.87;;;13.10;;
4049;SDS011;2039;50.894;6.888;2023-07-31T14:02:38;75.60;;;19.80;;
4049;SDS011;2039;50.894;6.888;2023-07-31T14:05:04;77.20;;;22.87;;
4049;SDS011;2039;50.894;6.888;2023-07-31T14:07:31;75.47;;;21.37;;
4049;SDS011;2039;50.894;6.888;2023-07-31T14:09:57;78.40;;;22.87;;
4049;SDS011;2039;50.894;6.888;2023-07-31T14:12:23;74.07;;;13.57;;
4049;SDS011;2039;50.894;6.888;2023-07-31T14:14:48;75.90;;;16.43;;
4049;SDS011;2039;50.894;6.888;2023-07-31T14:17:14;71.67;;;9.13;;
4049;SDS011;2039;50.894;6.888;2023-07-31T14:19:41;73.17;;;10.07;;
4049;SDS011;2039;50.894;6.888;2023-07-31T14:22:10;73.93;;;15.93;;
4049;SDS011;2039;50.894;6.888;2023-07-31T14:24:35;72.80;;;10.80;;
4049;SDS011;2039;50.894;6.888;2023-07-31T14:27:01;73.70;;;10.40;;
4049;SDS011;2039;50.894;6.888;2023-07-31T14:29:27;72.70;;;10.70;;
4049;SDS011;2039;50.894;6.888;2023-07-31T14:31:53;72.63;;;8.97;;
4049;SDS011;2039;50.894;6.888;2023-07-31T14:34:18;72.97;;;12.17;;
4049;SDS011;2039;50.894;6.888;2023-07-31T14:36:44;72.63;;;10.87;;
4049;SDS011;2039;50.894;6.888;2023-07-31T14:39:11;72.17;;;10.00;;
4049;SDS011;2039;50.894;6.888;2023-07-31T14:41:36;74.50;;;9.63;;
4049;SDS011;2039;50.894;6.888;2023-07-31T14:44:05;72.37;;;10.10;;
4049;SDS011;2039;50.894;6.888;2023-07-31T14:46:31;73.07;;;9.33;;
4049;SDS011;2039;50.894;6.888;2023-07-31T14:48:56;72.40;;;9.60;;
4049;SDS011;2039;50.894;6.888;2023-07-31T14:51:22;72.50;;;10.00;;
4049;SDS011;2039;50.894;6.888;2023-07-31T14:53:47;72.27;;;9.27;;
4049;SDS011;2039;50.894;6.888;2023-07-31T14:56:13;70.97;;;7.70;;
4049;SDS011;2039;50.894;6.888;2023-07-31T14:58:39;71.37;;;7.77;;
4049;SDS011;2039;50.894;6.888;2023-07-31T15:01:04;71.63;;;8.47;;
4049;SDS011;2039;50.894;6.888;2023-07-31T15:03:30;72.47;;;8.60;;
4049;SDS011;2039;50.894;6.888;2023-07-31T15:05:56;72.90;;;9.00;;
4049;SDS011;2039;50.894;6.888;2023-07-31T15:08:21;71.17;;;8.30;;
4049;SDS011;2039;50.894;6.888;2023-07-31T15:10:47;71.17;;;7.97;;
4049;SDS011;2039;50.894;6.888;2023-07-31T15:13:13;72.10;;;8.37;;
4049;SDS011;2039;50.894;6.888;2023-07-31T15:15:39;74.57;;;8.13;;
4049;SDS011;2039;50.894;6.888;2023-07-31T15:18:05;74.50;;;8.50;;
4049;SDS011;2039;50.894;6.888;2023-07-31T15:20:31;72.00;;;7.93;;